sensor_id;sensor_type;location;lat;lon;timestamp;P1;durP1;ratioP1;P2;durP2;ratioP2
17235;SDS011;8734;59.272;17.780;2023-02-18T00:01:20;25.43;;;7.63;;
17235;SDS011;8734;59.272;17.780;2023-02-18T00:03:49;17.97;;;6.17;;
17235;SDS011;8734;59.272;17.780;2023-02-18T00:06:21;19.93;;;6.80;;
17235;SDS011;8734;59.272;17.780;2023-02-18T00:08:51;18.17;;;5.37;;
17235;SDS011;8734;59.272;17.780;2023-02-18T00:11:20;16.30;;;5.30;;
17235;SDS011;8734;59.272;17.780;2023-02-18T00:13:49;8.17;;;3.87;;
17235;SDS011;8734;59.272;17.780;2023-02-18T00:16:18;11.40;;;4.37;;
17235;SDS011;8734;59.272;17.780;2023-02-18T00:18:47;11.30;;;3.27;;
17235;SDS011;8734;59.272;17.780;2023-02-18T00:21:15;6.27;;;3.40;;
17235;SDS011;8734;59.272;17.780;2023-02-18T00:23:45;5.63;;;3.20;;
17235;SDS011;8734;59.272;17.780;2023-02-18T00:26:14;5.97;;;2.70;;
17235;SDS011;8734;59.272;17.780;2023-02-18T00:28:43;5.67;;;2.30;;
17235;SDS011;8734;59.272;17.780;2023-02-18T00:31:15;6.63;;;2.70;;
17235;SDS011;8734;59.272;17.780;2023-02-18T00:33:45;6.10;;;3.13;;
17235;SDS011;8734;59.272;17.780;2023-02-18T00:36:15;5.70;;;2.60;;
17235;SDS011;8734;59.272;17.780;2023-02-18T00:38:46;4.83;;;2.43;;
17235;SDS011;8734;59.272;17.780;2023-02-18T00:41:16;3.37;;;2.30;;
17235;SDS011;8734;59.272;17.780;2023-02-18T00:43:45;5.90;;;3.37;;
17235;SDS011;8734;59.272;17.780;2023-02-18T00:46:14;4.33;;;2.80;;
17235;SDS011;8734;59.272;17.780;2023-02-18T00:48:42;4.83;;;3.13;;
17235;SDS011;8734;59.272;17.780;2023-02-18T00:51:11;5.07;;;3.00;;
17235;SDS011;8734;59.272;17.780;2023-02-18T00:53:40;5.57;;;3.00;;
17235;SDS011;8734;59.272;17.780;2023-02-18T00:56:09;5.27;;;3.50;;
17235;SDS011;8734;59.272;17.780;2023-02-18T00:58:38;4.73;;;2.73;;
17235;SDS011;8734;59.272;17.780;2023-02-18T01:01:07;5.30;;;3.10;;
17235;SDS011;8734;59.272;17.780;2023-02-18T01:03:36;4.80;;;2.70;;
17235;SDS011;8734;59.272;17.780;2023-02-18T01:06:08;2.80;;;2.30;;
17235;SDS011;8734;59.272;17.780;2023-02-18T01:08:37;4.40;;;2.93;;
17235;SDS011;8734;59.272;17.780;2023-02-18T01:11:06;4.67;;;2.80;;
17235;SDS011;8734;59.272;17.780;2023-02-18T01:13:38;6.70;;;3.50;;
17235;SDS011;8734;59.272;17.780;2023-02-18T01:16:07;6.53;;;3.63;;
17235;SDS011;8734;59.272;17.780;2023-02-18T01:18:38;4.17;;;3.00;;
17235;SDS011;8734;59.272;17.780;2023-02-18T01:21:07;5.80;;;3.50;;
17235;SDS011;8734;59.272;17.780;2023-02-18T01:23:36;5.20;;;3.03;;
17235;SDS011;8734;59.272;17.780;2023-02-18T01:26:06;3.43;;;2.23;;
17235;SDS011;8734;59.272;17.780;2023-02-18T01:28:35;3.17;;;2.47;;
17235;SDS011;8734;59.272;17.780;2023-02-18T01:31:06;3.30;;;2.37;;
17235;SDS011;8734;59.272;17.780;2023-02-18T01:33:36;2.17;;;1.80;;
17235;SDS011;8734;59.272;17.780;2023-02-18T01:36:06;2.23;;;1.63;;
17235;SDS011;8734;59.272;17.780;2023-02-18T01:38:35;2.00;;;1.60;;
17235;SDS011;8734;59.272;17.780;2023-02-18T01:41:03;1.70;;;1.43;;
17235;SDS011;8734;59.272;17.780;2023-02-18T01:43:32;1.60;;;1.20;;
17235;SDS011;8734;59.272;17.780;2023-02-18T01:48:48;1.80;;;1.40;;
17235;SDS011;8734;59.272;17.780;2023-02-18T01:51:21;1.50;;;1.30;;
17235;SDS011;8734;59.272;17.780;2023-02-18T01:53:53;2.53;;;1.60;;
17235;SDS011;8734;59.272;17.780;2023-02-18T01:56:27;2.50;;;1.87;;
17235;SDS011;8734;59.272;17.780;2023-02-18T01:58:59;1.43;;;1.30;;
17235;SDS011;8734;59.272;17.780;2023-02-18T02:01:32;1.63;;;1.40;;
17235;SDS011;8734;59.272;17.780;2023-02-18T02:04:02;1.53;;;1.43;;
17235;SDS011;8734;59.272;17.780;2023-02-18T02:06:31;1.90;;;1.70;;
17235;SDS011;8734;59.272;17.780;2023-02-18T02:09:01;1.90;;;1.60;;
17235;SDS011;8734;59.272;17.780;2023-02-18T02:11:35;1.70;;;1.60;;
17235;SDS011;8734;59.272;17.780;2023-02-18T02:14:13;1.63;;;1.50;;
17235;SDS011;8734;59.272;17.780;2023-02-18T02:16:51;2.07;;;1.47;;
17235;SDS011;8734;59.272;17.780;2023-02-18T02:19:35;1.57;;;1.30;;
17235;SDS011;8734;59.272;17.780;2023-02-18T02:25:31;1.80;;;1.67;;
17235;SDS011;8734;59.272;17.780;2023-02-18T02:28:26;3.57;;;1.70;;
17235;SDS011;8734;59.272;17.780;2023-02-18T02:31:37;2.33;;;1.67;;
17235;SDS011;8734;59.272;17.780;2023-02-18T02:34:26;2.10;;;1.83;;
17235;SDS011;8734;59.272;17.780;2023-02-18T02:37:01;2.07;;;1.70;;
17235;SDS011;8734;59.272;17.780;2023-02-18T02:39:41;1.80;;;1.70;;
17235;SDS011;8734;59.272;17.780;2023-02-18T02:42:20;1.40;;;1.30;;
17235;SDS011;8734;59.272;17.780;2023-02-18T02:44:58;1.67;;;1.57;;
17235;SDS011;8734;59.272;17.780;2023-02-18T02:47:35;1.23;;;0.97;;
17235;SDS011;8734;59.272;17.780;2023-02-18T02:50:09;1.07;;;1.00;;
17235;SDS011;8734;59.272;17.780;2023-02-18T02:52:44;1.10;;;0.90;;
17235;SDS011;8734;59.272;17.780;2023-02-18T02:55:17;1.00;;;0.80;;
17235;SDS011;8734;59.272;17.780;2023-02-18T02:57:47;1.00;;;0.90;;
17235;SDS011;8734;59.272;17.780;2023-02-18T03:00:17;1.27;;;0.90;;
17235;SDS011;8734;59.272;17.780;2023-02-18T03:02:57;0.80;;;0.80;;
17235;SDS011;8734;59.272;17.780;2023-02-18T03:05:45;0.93;;;0.87;;
17235;SDS011;8734;59.272;17.780;2023-02-18T03:08:28;0.53;;;0.53;;
17235;SDS011;8734;59.272;17.780;2023-02-18T03:11:06;0.50;;;0.50;;
17235;SDS011;8734;59.272;17.780;2023-02-18T03:13:48;0.37;;;0.37;;
17235;SDS011;8734;59.272;17.780;2023-02-18T03:16:25;0.30;;;0.30;;
17235;SDS011;8734;59.272;17.780;2023-02-18T03:19:02;0.40;;;0.40;;
17235;SDS011;8734;59.272;17.780;2023-02-18T03:21:39;0.33;;;0.33;;
17235;SDS011;8734;59.272;17.780;2023-02-18T03:24:12;0.30;;;0.30;;
17235;SDS011;8734;59.272;17.780;2023-02-18T03:26:44;0.50;;;0.50;;
17235;SDS011;8734;59.272;17.780;2023-02-18T03:29:17;0.30;;;0.30;;
17235;SDS011;8734;59.272;17.780;2023-02-18T03:31:48;0.30;;;0.30;;
17235;SDS011;8734;59.272;17.780;2023-02-18T03:34:22;0.47;;;0.47;;
17235;SDS011;8734;59.272;17.780;2023-02-18T03:36:56;0.40;;;0.40;;
17235;SDS011;8734;59.272;17.780;2023-02-18T03:39:27;0.50;;;0.50;;
17235;SDS011;8734;59.272;17.780;2023-02-18T03:41:57;0.50;;;0.50;;
17235;SDS011;8734;59.272;17.780;2023-02-18T03:44:25;0.70;;;0.70;;
17235;SDS011;8734;59.272;17.780;2023-02-18T03:46:54;0.60;;;0.60;;
17235;SDS011;8734;59.272;17.780;2023-02-18T03:49:22;0.83;;;0.50;;
17235;SDS011;8734;59.272;17.780;2023-02-18T03:51:50;0.60;;;0.60;;
17235;SDS011;8734;59.272;17.780;2023-02-18T03:54:20;0.60;;;0.60;;
17235;SDS011;8734;59.272;17.780;2023-02-18T03:56:48;2.43;;;0.77;;
17235;SDS011;8734;59.272;17.780;2023-02-18T03:59:17;0.70;;;0.70;;
17235;SDS011;8734;59.272;17.780;2023-02-18T04:01:45;1.60;;;0.80;;
17235;SDS011;8734;59.272;17.780;2023-02-18T04:04:13;0.87;;;0.60;;
17235;SDS011;8734;59.272;17.780;2023-02-18T04:06:42;0.50;;;0.50;;
17235;SDS011;8734;59.272;17.780;2023-02-18T04:09:10;0.50;;;0.50;;
17235;SDS011;8734;59.272;17.780;2023-02-18T04:11:40;0.43;;;0.43;;
17235;SDS011;8734;59.272;17.780;2023-02-18T04:14:08;0.60;;;0.60;;
17235;SDS011;8734;59.272;17.780;2023-02-18T04:16:40;0.40;;;0.40;;
17235;SDS011;8734;59.272;17.780;2023-02-18T04:19:08;0.30;;;0.30;;
17235;SDS011;8734;59.272;17.780;2023-02-18T04:21:37;0.40;;;0.40;;
17235;SDS011;8734;59.272;17.780;2023-02-18T04:24:06;0.30;;;0.30;;
17235;SDS011;8734;59.272;17.780;2023-02-18T04:26:34;0.77;;;0.50;;
17235;SDS011;8734;59.272;17.780;2023-02-18T04:29:04;0.50;;;0.50;;
17235;SDS011;8734;59.272;17.780;2023-02-18T04:31:32;0.30;;;0.30;;
17235;SDS011;8734;59.272;17.780;2023-02-18T04:34:01;0.30;;;0.30;;
17235;SDS011;8734;59.272;17.780;2023-02-18T04:36:29;0.37;;;0.37;;
17235;SDS011;8734;59.272;17.780;2023-02-18T04:38:58;0.40;;;0.40;;
17235;SDS011;8734;59.272;17.780;2023-02-18T04:41:26;0.40;;;0.40;;
17235;SDS011;8734;59.272;17.780;2023-02-18T04:43:54;0.40;;;0.40;;
17235;SDS011;8734;59.272;17.780;2023-02-18T04:46:26;0.30;;;0.30;;
17235;SDS011;8734;59.272;17.780;2023-02-18T04:48:55;0.40;;;0.40;;
17235;SDS011;8734;59.272;17.780;2023-02-18T04:51:23;0.40;;;0.40;;
17235;SDS011;8734;59.272;17.780;2023-02-18T04:53:51;0.40;;;0.40;;
17235;SDS011;8734;59.272;17.780;2023-02-18T04:56:20;0.30;;;0.30;;
17235;SDS011;8734;59.272;17.780;2023-02-18T04:58:48;0.30;;;0.30;;
17235;SDS011;8734;59.272;17.780;2023-02-18T05:01:16;0.30;;;0.30;;
17235;SDS011;8734;59.272;17.780;2023-02-18T05:03:46;0.40;;;0.40;;
17235;SDS011;8734;59.272;17.780;2023-02-18T05:06:14;0.30;;;0.30;;
17235;SDS011;8734;59.272;17.780;2023-02-18T05:08:43;0.20;;;0.20;;
17235;SDS011;8734;59.272;17.780;2023-02-18T05:11:12;0.37;;;0.37;;
17235;SDS011;8734;59.272;17.780;2023-02-18T05:13:40;0.30;;;0.30;;
17235;SDS011;8734;59.272;17.780;2023-02-18T05:16:09;0.30;;;0.30;;
17235;SDS011;8734;59.272;17.780;2023-02-18T05:18:38;0.30;;;0.30;;
17235;SDS011;8734;59.272;17.780;2023-02-18T05:21:08;0.40;;;0.40;;
17235;SDS011;8734;59.272;17.780;2023-02-18T05:23:37;0.40;;;0.40;;
17235;SDS011;8734;59.272;17.780;2023-02-18T05:26:05;0.40;;;0.40;;
17235;SDS011;8734;59.272;17.780;2023-02-18T05:28:34;0.30;;;0.30;;
17235;SDS011;8734;59.272;17.780;2023-02-18T05:31:03;0.37;;;0.37;;
17235;SDS011;8734;59.272;17.780;2023-02-18T05:33:32;0.30;;;0.30;;
17235;SDS011;8734;59.272;17.780;2023-02-18T05:36:00;0.30;;;0.30;;
17235;SDS011;8734;59.272;17.780;2023-02-18T05:38:30;0.30;;;0.30;;
17235;SDS011;8734;59.272;17.780;2023-02-18T05:40:58;0.37;;;0.37;;
17235;SDS011;8734;59.272;17.780;2023-02-18T05:43:26;0.30;;;0.30;;
17235;SDS011;8734;59.272;17.780;2023-02-18T05:45:55;0.40;;;0.40;;
17235;SDS011;8734;59.272;17.780;2023-02-18T05:48:24;0.47;;;0.30;;
17235;SDS011;8734;59.272;17.780;2023-02-18T05:50:52;0.40;;;0.40;;
17235;SDS011;8734;59.272;17.780;2023-02-18T05:53:21;0.30;;;0.30;;
17235;SDS011;8734;59.272;17.780;2023-02-18T05:55:51;0.30;;;0.30;;
17235;SDS011;8734;59.272;17.780;2023-02-18T05:58:19;0.30;;;0.30;;
17235;SDS011;8734;59.272;17.780;2023-02-18T06:00:48;0.30;;;0.30;;
17235;SDS011;8734;59.272;17.780;2023-02-18T06:03:16;0.20;;;0.20;;
17235;SDS011;8734;59.272;17.780;2023-02-18T06:05:44;0.30;;;0.30;;
17235;SDS011;8734;59.272;17.780;2023-02-18T06:08:16;0.30;;;0.30;;
17235;SDS011;8734;59.272;17.780;2023-02-18T06:10:45;0.30;;;0.30;;
17235;SDS011;8734;59.272;17.780;2023-02-18T06:13:15;0.30;;;0.30;;
17235;SDS011;8734;59.272;17.780;2023-02-18T06:15:44;0.40;;;0.40;;
17235;SDS011;8734;59.272;17.780;2023-02-18T06:18:12;0.50;;;0.33;;
17235;SDS011;8734;59.272;17.780;2023-02-18T06:20:40;0.30;;;0.30;;
17235;SDS011;8734;59.272;17.780;2023-02-18T06:23:09;0.30;;;0.30;;
17235;SDS011;8734;59.272;17.780;2023-02-18T06:25:37;0.40;;;0.40;;
17235;SDS011;8734;59.272;17.780;2023-02-18T06:28:06;0.40;;;0.40;;
17235;SDS011;8734;59.272;17.780;2023-02-18T06:30:36;0.60;;;0.40;;
17235;SDS011;8734;59.272;17.780;2023-02-18T06:33:05;0.20;;;0.20;;
17235;SDS011;8734;59.272;17.780;2023-02-18T06:35:33;0.40;;;0.40;;
17235;SDS011;8734;59.272;17.780;2023-02-18T06:38:02;0.33;;;0.33;;
17235;SDS011;8734;59.272;17.780;2023-02-18T06:40:30;0.30;;;0.30;;
17235;SDS011;8734;59.272;17.780;2023-02-18T06:42:59;0.20;;;0.20;;
17235;SDS011;8734;59.272;17.780;2023-02-18T06:45:27;0.30;;;0.30;;
17235;SDS011;8734;59.272;17.780;2023-02-18T06:47:57;0.40;;;0.40;;
17235;SDS011;8734;59.272;17.780;2023-02-18T06:50:26;0.30;;;0.30;;
17235;SDS011;8734;59.272;17.780;2023-02-18T06:52:54;0.40;;;0.40;;
17235;SDS011;8734;59.272;17.780;2023-02-18T06:55:22;0.87;;;0.40;;
17235;SDS011;8734;59.272;17.780;2023-02-18T06:57:51;0.40;;;0.40;;
17235;SDS011;8734;59.272;17.780;2023-02-18T07:00:19;0.30;;;0.30;;
17235;SDS011;8734;59.272;17.780;2023-02-18T07:02:48;0.30;;;0.30;;
17235;SDS011;8734;59.272;17.780;2023-02-18T07:05:18;0.50;;;0.50;;
17235;SDS011;8734;59.272;17.780;2023-02-18T07:07:47;0.30;;;0.30;;
17235;SDS011;8734;59.272;17.780;2023-02-18T07:10:15;0.40;;;0.40;;
17235;SDS011;8734;59.272;17.780;2023-02-18T07:12:43;0.50;;;0.50;;
17235;SDS011;8734;59.272;17.780;2023-02-18T07:15:12;2.00;;;0.60;;
17235;SDS011;8734;59.272;17.780;2023-02-18T07:17:41;0.50;;;0.50;;
17235;SDS011;8734;59.272;17.780;2023-02-18T07:20:09;0.50;;;0.50;;
17235;SDS011;8734;59.272;17.780;2023-02-18T07:22:40;0.30;;;0.30;;
17235;SDS011;8734;59.272;17.780;2023-02-18T07:25:08;0.40;;;0.40;;
17235;SDS011;8734;59.272;17.780;2023-02-18T07:27:36;0.67;;;0.60;;
17235;SDS011;8734;59.272;17.780;2023-02-18T07:30:05;0.40;;;0.40;;
17235;SDS011;8734;59.272;17.780;2023-02-18T07:32:34;0.40;;;0.40;;
17235;SDS011;8734;59.272;17.780;2023-02-18T07:35:02;0.40;;;0.40;;
17235;SDS011;8734;59.272;17.780;2023-02-18T07:37:32;0.43;;;0.43;;
17235;SDS011;8734;59.272;17.780;2023-02-18T07:40:02;0.50;;;0.50;;
17235;SDS011;8734;59.272;17.780;2023-02-18T07:42:30;0.33;;;0.33;;
17235;SDS011;8734;59.272;17.780;2023-02-18T07:44:59;0.50;;;0.50;;
17235;SDS011;8734;59.272;17.780;2023-02-18T07:47:27;0.40;;;0.40;;
17235;SDS011;8734;59.272;17.780;2023-02-18T07:49:56;0.40;;;0.40;;
17235;SDS011;8734;59.272;17.780;2023-02-18T07:52:25;0.73;;;0.40;;
17235;SDS011;8734;59.272;17.780;2023-02-18T07:54:53;0.50;;;0.50;;
17235;SDS011;8734;59.272;17.780;2023-02-18T07:57:23;0.50;;;0.47;;
17235;SDS011;8734;59.272;17.780;2023-02-18T07:59:51;0.40;;;0.40;;
17235;SDS011;8734;59.272;17.780;2023-02-18T08:02:20;0.40;;;0.40;;
17235;SDS011;8734;59.272;17.780;2023-02-18T08:04:50;0.67;;;0.57;;
17235;SDS011;8734;59.272;17.780;2023-02-18T08:07:19;0.50;;;0.50;;
17235;SDS011;8734;59.272;17.780;2023-02-18T08:09:49;0.30;;;0.30;;
17235;SDS011;8734;59.272;17.780;2023-02-18T08:12:17;1.27;;;0.73;;
17235;SDS011;8734;59.272;17.780;2023-02-18T08:14:47;0.53;;;0.53;;
17235;SDS011;8734;59.272;17.780;2023-02-18T08:17:16;0.57;;;0.47;;
17235;SDS011;8734;59.272;17.780;2023-02-18T08:19:44;0.60;;;0.60;;
17235;SDS011;8734;59.272;17.780;2023-02-18T08:22:13;0.73;;;0.47;;
17235;SDS011;8734;59.272;17.780;2023-02-18T08:24:41;0.50;;;0.50;;
17235;SDS011;8734;59.272;17.780;2023-02-18T08:27:09;0.40;;;0.40;;
17235;SDS011;8734;59.272;17.780;2023-02-18T08:29:39;0.50;;;0.50;;
17235;SDS011;8734;59.272;17.780;2023-02-18T08:32:08;2.70;;;0.60;;
17235;SDS011;8734;59.272;17.780;2023-02-18T08:34:37;1.33;;;0.60;;
17235;SDS011;8734;59.272;17.780;2023-02-18T08:37:06;0.53;;;0.43;;
17235;SDS011;8734;59.272;17.780;2023-02-18T08:39:34;0.40;;;0.40;;
17235;SDS011;8734;59.272;17.780;2023-02-18T08:42:05;0.50;;;0.50;;
17235;SDS011;8734;59.272;17.780;2023-02-18T08:44:34;1.77;;;0.40;;
17235;SDS011;8734;59.272;17.780;2023-02-18T08:47:02;0.40;;;0.40;;
17235;SDS011;8734;59.272;17.780;2023-02-18T08:49:52;1.43;;;0.50;;
17235;SDS011;8734;59.272;17.780;2023-02-18T08:52:21;2.07;;;0.73;;
17235;SDS011;8734;59.272;17.780;2023-02-18T08:54:49;0.80;;;0.60;;
17235;SDS011;8734;59.272;17.780;2023-02-18T08:57:18;0.73;;;0.50;;
17235;SDS011;8734;59.272;17.780;2023-02-18T08:59:46;0.77;;;0.40;;
17235;SDS011;8734;59.272;17.780;2023-02-18T09:02:14;1.13;;;0.60;;
17235;SDS011;8734;59.272;17.780;2023-02-18T09:04:42;2.23;;;0.70;;
17235;SDS011;8734;59.272;17.780;2023-02-18T09:07:13;0.93;;;0.40;;
17235;SDS011;8734;59.272;17.780;2023-02-18T09:09:41;3.20;;;0.70;;
17235;SDS011;8734;59.272;17.780;2023-02-18T09:12:09;0.57;;;0.53;;
17235;SDS011;8734;59.272;17.780;2023-02-18T09:14:37;1.73;;;0.50;;
17235;SDS011;8734;59.272;17.780;2023-02-18T09:17:06;2.33;;;0.50;;
17235;SDS011;8734;59.272;17.780;2023-02-18T09:19:35;1.83;;;0.60;;
17235;SDS011;8734;59.272;17.780;2023-02-18T09:22:03;2.63;;;0.60;;
17235;SDS011;8734;59.272;17.780;2023-02-18T09:24:36;1.03;;;0.70;;
17235;SDS011;8734;59.272;17.780;2023-02-18T09:27:05;0.53;;;0.50;;
17235;SDS011;8734;59.272;17.780;2023-02-18T09:29:37;1.90;;;0.80;;
17235;SDS011;8734;59.272;17.780;2023-02-18T09:32:06;2.93;;;0.50;;
17235;SDS011;8734;59.272;17.780;2023-02-18T09:34:41;3.33;;;0.60;;
17235;SDS011;8734;59.272;17.780;2023-02-18T09:37:09;0.93;;;0.67;;
17235;SDS011;8734;59.272;17.780;2023-02-18T09:39:39;1.80;;;0.90;;
17235;SDS011;8734;59.272;17.780;2023-02-18T09:42:10;1.03;;;0.50;;
17235;SDS011;8734;59.272;17.780;2023-02-18T09:44:42;1.70;;;0.60;;
17235;SDS011;8734;59.272;17.780;2023-02-18T09:47:13;6.33;;;0.70;;
17235;SDS011;8734;59.272;17.780;2023-02-18T09:49:46;3.43;;;0.60;;
17235;SDS011;8734;59.272;17.780;2023-02-18T09:52:19;5.07;;;1.23;;
17235;SDS011;8734;59.272;17.780;2023-02-18T09:54:52;1.83;;;0.57;;
17235;SDS011;8734;59.272;17.780;2023-02-18T09:57:21;7.50;;;0.97;;
17235;SDS011;8734;59.272;17.780;2023-02-18T09:59:55;2.00;;;0.70;;
17235;SDS011;8734;59.272;17.780;2023-02-18T10:02:26;7.20;;;0.70;;
17235;SDS011;8734;59.272;17.780;2023-02-18T10:04:55;2.33;;;0.70;;
17235;SDS011;8734;59.272;17.780;2023-02-18T10:07:25;3.73;;;1.07;;
17235;SDS011;8734;59.272;17.780;2023-02-18T10:09:58;6.63;;;0.97;;
17235;SDS011;8734;59.272;17.780;2023-02-18T10:12:35;4.90;;;0.90;;
17235;SDS011;8734;59.272;17.780;2023-02-18T10:15:06;0.90;;;0.50;;
17235;SDS011;8734;59.272;17.780;2023-02-18T10:17:43;2.57;;;0.70;;
17235;SDS011;8734;59.272;17.780;2023-02-18T10:20:14;6.67;;;0.60;;
17235;SDS011;8734;59.272;17.780;2023-02-18T10:22:46;7.27;;;0.83;;
17235;SDS011;8734;59.272;17.780;2023-02-18T10:25:18;3.77;;;0.73;;
17235;SDS011;8734;59.272;17.780;2023-02-18T10:27:49;4.23;;;0.87;;
17235;SDS011;8734;59.272;17.780;2023-02-18T10:30:20;2.40;;;0.63;;
17235;SDS011;8734;59.272;17.780;2023-02-18T10:32:51;1.90;;;0.63;;
17235;SDS011;8734;59.272;17.780;2023-02-18T10:35:23;5.67;;;0.87;;
17235;SDS011;8734;59.272;17.780;2023-02-18T10:38:00;0.57;;;0.40;;
17235;SDS011;8734;59.272;17.780;2023-02-18T10:40:38;1.00;;;0.70;;
17235;SDS011;8734;59.272;17.780;2023-02-18T10:43:18;2.83;;;0.70;;
17235;SDS011;8734;59.272;17.780;2023-02-18T10:45:55;4.07;;;0.70;;
17235;SDS011;8734;59.272;17.780;2023-02-18T10:48:49;4.17;;;0.70;;
17235;SDS011;8734;59.272;17.780;2023-02-18T10:51:27;3.27;;;0.70;;
17235;SDS011;8734;59.272;17.780;2023-02-18T10:53:58;2.63;;;0.80;;
17235;SDS011;8734;59.272;17.780;2023-02-18T10:56:36;3.90;;;0.67;;
17235;SDS011;8734;59.272;17.780;2023-02-18T10:59:10;0.70;;;0.57;;
17235;SDS011;8734;59.272;17.780;2023-02-18T11:01:40;2.33;;;0.90;;
17235;SDS011;8734;59.272;17.780;2023-02-18T11:04:11;0.50;;;0.50;;
17235;SDS011;8734;59.272;17.780;2023-02-18T11:06:43;3.83;;;0.80;;
17235;SDS011;8734;59.272;17.780;2023-02-18T11:09:25;3.57;;;0.50;;
17235;SDS011;8734;59.272;17.780;2023-02-18T11:12:04;2.00;;;0.60;;
17235;SDS011;8734;59.272;17.780;2023-02-18T11:14:41;0.87;;;0.40;;
17235;SDS011;8734;59.272;17.780;2023-02-18T11:17:18;1.73;;;0.40;;
17235;SDS011;8734;59.272;17.780;2023-02-18T11:19:52;4.10;;;0.60;;
17235;SDS011;8734;59.272;17.780;2023-02-18T11:22:25;1.03;;;0.50;;
17235;SDS011;8734;59.272;17.780;2023-02-18T11:24:58;1.63;;;0.30;;
17235;SDS011;8734;59.272;17.780;2023-02-18T11:27:29;1.40;;;0.50;;
17235;SDS011;8734;59.272;17.780;2023-02-18T11:30:06;2.23;;;0.53;;
17235;SDS011;8734;59.272;17.780;2023-02-18T11:32:46;8.87;;;0.73;;
17235;SDS011;8734;59.272;17.780;2023-02-18T11:35:17;2.97;;;0.70;;
17235;SDS011;8734;59.272;17.780;2023-02-18T11:37:48;5.10;;;0.60;;
17235;SDS011;8734;59.272;17.780;2023-02-18T11:40:20;0.50;;;0.50;;
17235;SDS011;8734;59.272;17.780;2023-02-18T11:42:52;4.00;;;0.93;;
17235;SDS011;8734;59.272;17.780;2023-02-18T11:45:31;2.00;;;0.70;;
17235;SDS011;8734;59.272;17.780;2023-02-18T11:48:05;4.43;;;0.50;;
17235;SDS011;8734;59.272;17.780;2023-02-18T11:50:35;2.57;;;0.67;;
17235;SDS011;8734;59.272;17.780;2023-02-18T11:53:23;1.10;;;0.50;;
17235;SDS011;8734;59.272;17.780;2023-02-18T11:55:55;0.77;;;0.60;;
17235;SDS011;8734;59.272;17.780;2023-02-18T11:58:26;2.70;;;0.70;;
17235;SDS011;8734;59.272;17.780;2023-02-18T12:00:58;3.33;;;0.80;;
17235;SDS011;8734;59.272;17.780;2023-02-18T12:03:32;1.43;;;0.50;;
17235;SDS011;8734;59.272;17.780;2023-02-18T12:06:10;1.67;;;0.60;;
17235;SDS011;8734;59.272;17.780;2023-02-18T12:08:44;3.23;;;0.60;;
17235;SDS011;8734;59.272;17.780;2023-02-18T12:11:26;5.93;;;1.13;;
17235;SDS011;8734;59.272;17.780;2023-02-18T12:14:00;3.20;;;0.77;;
17235;SDS011;8734;59.272;17.780;2023-02-18T12:16:30;1.67;;;0.50;;
17235;SDS011;8734;59.272;17.780;2023-02-18T12:19:10;2.53;;;0.60;;
17235;SDS011;8734;59.272;17.780;2023-02-18T12:21:55;2.20;;;0.70;;
17235;SDS011;8734;59.272;17.780;2023-02-18T12:24:36;6.20;;;0.60;;
17235;SDS011;8734;59.272;17.780;2023-02-18T12:27:15;4.53;;;0.60;;
17235;SDS011;8734;59.272;17.780;2023-02-18T12:29:54;2.23;;;0.53;;
17235;SDS011;8734;59.272;17.780;2023-02-18T12:32:35;4.53;;;0.63;;
17235;SDS011;8734;59.272;17.780;2023-02-18T12:35:21;8.20;;;0.83;;
17235;SDS011;8734;59.272;17.780;2023-02-18T12:38:13;3.37;;;0.80;;
17235;SDS011;8734;59.272;17.780;2023-02-18T12:41:03;5.67;;;0.77;;
17235;SDS011;8734;59.272;17.780;2023-02-18T12:43:42;4.93;;;0.70;;
17235;SDS011;8734;59.272;17.780;2023-02-18T12:46:22;3.07;;;1.00;;
17235;SDS011;8734;59.272;17.780;2023-02-18T12:49:17;4.10;;;0.73;;
17235;SDS011;8734;59.272;17.780;2023-02-18T12:51:57;11.50;;;0.67;;
17235;SDS011;8734;59.272;17.780;2023-02-18T12:54:35;5.10;;;0.70;;
17235;SDS011;8734;59.272;17.780;2023-02-18T12:57:22;6.60;;;1.00;;
17235;SDS011;8734;59.272;17.780;2023-02-18T13:03:05;1.07;;;0.50;;
17235;SDS011;8734;59.272;17.780;2023-02-18T13:05:51;5.00;;;0.60;;
17235;SDS011;8734;59.272;17.780;2023-02-18T13:08:30;4.83;;;0.60;;
17235;SDS011;8734;59.272;17.780;2023-02-18T13:11:15;1.10;;;0.50;;
17235;SDS011;8734;59.272;17.780;2023-02-18T13:13:54;1.47;;;0.50;;
17235;SDS011;8734;59.272;17.780;2023-02-18T13:16:28;0.47;;;0.47;;
17235;SDS011;8734;59.272;17.780;2023-02-18T13:19:02;1.00;;;0.50;;
17235;SDS011;8734;59.272;17.780;2023-02-18T13:21:37;10.10;;;0.57;;
17235;SDS011;8734;59.272;17.780;2023-02-18T13:24:09;1.07;;;0.70;;
17235;SDS011;8734;59.272;17.780;2023-02-18T13:26:39;0.57;;;0.47;;
17235;SDS011;8734;59.272;17.780;2023-02-18T13:29:15;0.83;;;0.50;;
17235;SDS011;8734;59.272;17.780;2023-02-18T13:31:51;4.83;;;0.70;;
17235;SDS011;8734;59.272;17.780;2023-02-18T13:34:31;2.33;;;0.77;;
17235;SDS011;8734;59.272;17.780;2023-02-18T13:37:05;0.70;;;0.50;;
17235;SDS011;8734;59.272;17.780;2023-02-18T13:39:38;0.40;;;0.40;;
17235;SDS011;8734;59.272;17.780;2023-02-18T13:42:29;5.07;;;0.67;;
17235;SDS011;8734;59.272;17.780;2023-02-18T13:45:06;1.43;;;0.43;;
17235;SDS011;8734;59.272;17.780;2023-02-18T13:47:51;2.23;;;0.40;;
17235;SDS011;8734;59.272;17.780;2023-02-18T13:50:27;0.40;;;0.40;;
17235;SDS011;8734;59.272;17.780;2023-02-18T13:52:59;1.70;;;0.50;;
17235;SDS011;8734;59.272;17.780;2023-02-18T13:55:41;1.27;;;0.43;;
17235;SDS011;8734;59.272;17.780;2023-02-18T13:58:17;2.63;;;0.50;;
17235;SDS011;8734;59.272;17.780;2023-02-18T14:00:49;1.53;;;0.40;;
17235;SDS011;8734;59.272;17.780;2023-02-18T14:03:30;1.50;;;0.50;;
17235;SDS011;8734;59.272;17.780;2023-02-18T14:06:16;1.13;;;0.53;;
17235;SDS011;8734;59.272;17.780;2023-02-18T14:08:45;3.23;;;0.50;;
17235;SDS011;8734;59.272;17.780;2023-02-18T14:11:24;2.50;;;0.70;;
17235;SDS011;8734;59.272;17.780;2023-02-18T14:14:14;2.33;;;0.40;;
17235;SDS011;8734;59.272;17.780;2023-02-18T14:20:25;1.60;;;0.60;;
17235;SDS011;8734;59.272;17.780;2023-02-18T14:26:24;3.87;;;0.50;;
17235;SDS011;8734;59.272;17.780;2023-02-18T14:29:00;2.90;;;0.77;;
17235;SDS011;8734;59.272;17.780;2023-02-18T14:31:34;1.37;;;0.53;;
17235;SDS011;8734;59.272;17.780;2023-02-18T14:34:14;3.20;;;0.50;;
17235;SDS011;8734;59.272;17.780;2023-02-18T14:37:04;2.20;;;0.70;;
17235;SDS011;8734;59.272;17.780;2023-02-18T14:39:46;0.67;;;0.37;;
17235;SDS011;8734;59.272;17.780;2023-02-18T14:42:23;0.77;;;0.50;;
17235;SDS011;8734;59.272;17.780;2023-02-18T14:45:04;1.90;;;0.43;;
17235;SDS011;8734;59.272;17.780;2023-02-18T14:47:46;0.70;;;0.63;;
17235;SDS011;8734;59.272;17.780;2023-02-18T14:50:34;2.40;;;0.50;;
17235;SDS011;8734;59.272;17.780;2023-02-18T14:53:05;14.13;;;1.00;;
17235;SDS011;8734;59.272;17.780;2023-02-18T14:55:42;3.00;;;0.40;;
17235;SDS011;8734;59.272;17.780;2023-02-18T14:58:15;0.50;;;0.40;;
17235;SDS011;8734;59.272;17.780;2023-02-18T15:00:52;2.70;;;0.67;;
17235;SDS011;8734;59.272;17.780;2023-02-18T15:03:20;1.33;;;0.60;;
17235;SDS011;8734;59.272;17.780;2023-02-18T15:05:50;0.83;;;0.60;;
17235;SDS011;8734;59.272;17.780;2023-02-18T15:08:19;3.57;;;0.43;;
17235;SDS011;8734;59.272;17.780;2023-02-18T15:10:51;0.73;;;0.50;;
17235;SDS011;8734;59.272;17.780;2023-02-18T15:13:25;0.37;;;0.30;;
17235;SDS011;8734;59.272;17.780;2023-02-18T15:15:56;2.90;;;0.70;;
17235;SDS011;8734;59.272;17.780;2023-02-18T15:18:29;14.03;;;0.60;;
17235;SDS011;8734;59.272;17.780;2023-02-18T15:21:01;1.93;;;0.60;;
17235;SDS011;8734;59.272;17.780;2023-02-18T15:23:33;2.03;;;0.50;;
17235;SDS011;8734;59.272;17.780;2023-02-18T15:26:06;4.33;;;0.60;;
17235;SDS011;8734;59.272;17.780;2023-02-18T15:28:40;0.63;;;0.50;;
17235;SDS011;8734;59.272;17.780;2023-02-18T15:31:18;1.40;;;0.50;;
17235;SDS011;8734;59.272;17.780;2023-02-18T15:33:53;14.83;;;0.87;;
17235;SDS011;8734;59.272;17.780;2023-02-18T15:36:24;2.27;;;0.63;;